Time;durP1;ratioP1;P1;durP2;ratioP2;P2;SDS_P1;SDS_P2;PMS_P1;PMS_P2;Temp;Humidity;BMP_temperature;BMP_pressure;BME280_temperature;BME280_humidity;BME280_pressure;Samples;Min_cycle;Max_cycle;Signal;HPM_P1;HPM_P2
2022/05/08 00:00:43;;;;;;;20.95;14.73;;;;;;;13.09;64.52;99616.19;5179233;28;20046;-72
2022/05/08 00:03:33;;;;;;;24.85;16.00;;;;;;;12.97;64.70;99601.34;5167966;28;20126;-72
2022/05/08 00:06:23;;;;;;;23.10;15.82;;;;;;;12.99;64.79;99620.69;5160889;28;20132;-72
2022/05/08 00:09:14;;;;;;;19.00;15.38;;;;;;;12.97;65.03;99620.00;5192149;28;20515;-72
2022/05/08 00:12:05;;;;;;;17.92;14.65;;;;;;;12.81;65.08;99609.94;5193115;28;20118;-72
2022/05/08 00:14:55;;;;;;;22.02;15.38;;;;;;;12.85;64.87;99598.03;5165968;28;20061;-72
2022/05/08 00:17:47;;;;;;;19.88;15.23;;;;;;;12.66;64.73;99608.72;5167989;28;20716;-72
2022/05/08 00:20:41;;;;;;;19.80;13.83;;;;;;;12.44;65.35;99604.53;5176994;28;20056;-72
2022/05/08 00:23:31;;;;;;;17.05;14.40;;;;;;;12.41;65.02;99608.28;5178689;28;20164;-72
2022/05/08 00:26:21;;;;;;;19.35;15.02;;;;;;;12.42;65.23;99594.03;5162451;28;20054;-72
2022/05/08 00:29:12;;;;;;;19.10;14.82;;;;;;;12.62;65.38;99605.50;5177091;28;20056;-72
2022/05/08 00:32:04;;;;;;;18.67;13.88;;;;;;;12.37;65.40;99604.25;5171613;28;20061;-72
2022/05/08 00:34:56;;;;;;;16.55;13.95;;;;;;;12.21;64.59;99599.47;5163463;28;20104;-73
2022/05/08 00:37:46;;;;;;;22.02;14.52;;;;;;;12.30;65.65;99596.97;5167678;28;20045;-70
2022/05/08 00:40:37;;;;;;;18.75;14.45;;;;;;;12.21;66.14;99599.47;5167073;28;20051;-70
2022/05/08 00:43:33;;;;;;;27.02;16.52;;;;;;;12.38;65.79;99597.09;5182114;28;20053;-69
2022/05/08 00:46:23;;;;;;;22.58;17.98;;;;;;;12.26;65.83;99579.63;5180620;28;20050;-71
2022/05/08 00:49:13;;;;;;;25.58;16.77;;;;;;;12.34;66.13;99582.41;5172309;28;20054;-70
2022/05/08 00:52:05;;;;;;;28.88;20.02;;;;;;;12.64;66.36;99584.91;5172892;28;20504;-71
2022/05/08 00:54:55;;;;;;;25.23;19.45;;;;;;;12.57;67.33;99594.44;5182287;28;20049;-70
2022/05/08 00:57:45;;;;;;;28.55;20.92;;;;;;;12.84;66.78;99600.81;5179715;28;20046;-70
2022/05/08 01:00:35;;;;;;;26.92;18.70;;;;;;;12.66;66.85;99598.91;5185344;28;20143;-70
2022/05/08 01:03:25;;;;;;;23.98;18.05;;;;;;;12.55;66.59;99598.22;5170604;28;20061;-71
2022/05/08 01:06:17;;;;;;;24.67;18.95;;;;;;;12.58;66.90;99588.16;5165577;28;20135;-71
2022/05/08 01:09:07;;;;;;;27.33;18.45;;;;;;;12.60;65.79;99598.63;5167264;28;20064;-70
2022/05/08 01:11:57;;;;;;;25.33;18.73;;;;;;;12.37;66.00;99598.09;5189403;28;20056;-71
2022/05/08 01:15:14;;;;;;;25.77;17.70;;;;;;;12.32;65.61;99595.03;5184547;28;20061;-70
2022/05/08 01:18:05;;;;;;;25.90;18.17;;;;;;;12.22;65.22;99595.03;5172993;28;20050;-70
2022/05/08 01:20:55;;;;;;;20.92;16.38;;;;;;;12.09;66.09;99578.50;5164981;28;20058;-71
2022/05/08 01:23:46;;;;;;;24.73;18.40;;;;;;;12.26;66.86;99591.09;5183051;28;20519;-71
2022/05/08 01:26:36;;;;;;;23.75;18.33;;;;;;;12.32;66.60;99581.72;5171581;28;20066;-71
2022/05/08 01:29:26;;;;;;;24.15;17.35;;;;;;;12.25;66.09;99575.28;5167618;28;20126;-71
2022/05/08 01:32:17;;;;;;;26.10;16.27;;;;;;;12.22;65.83;99581.72;5169822;28;20052;-70
2022/05/08 01:35:07;;;;;;;23.13;17.13;;;;;;;12.25;65.78;99583.25;5168085;28;20057;-70
2022/05/08 01:37:57;;;;;;;26.92;15.38;;;;;;;12.20;65.68;99579.19;5184233;28;20534;-70
2022/05/08 01:40:50;;;;;;;21.38;16.02;;;;;;;12.34;65.17;99585.91;5183073;28;20058;-70
2022/05/08 01:43:41;;;;;;;21.58;15.20;;;;;;;12.25;65.70;99578.78;5174994;28;20065;-70
2022/05/08 01:46:32;;;;;;;24.58;17.38;;;;;;;12.42;66.20;99590.53;5171930;28;20072;-71
2022/05/08 01:49:22;;;;;;;21.40;16.35;;;;;;;12.16;66.63;99585.78;5171269;28;20527;-71
2022/05/08 01:52:12;;;;;;;23.90;17.75;;;;;;;12.14;66.71;99592.22;5164731;28;20089;-70
2022/05/08 01:55:02;;;;;;;21.77;15.48;;;;;;;11.95;66.20;99593.03;5179504;28;20054;-70
2022/05/08 01:57:53;;;;;;;22.95;16.88;;;;;;;11.95;66.51;99603.66;5184014;28;20054;-71
2022/05/08 02:00:44;;;;;;;23.13;15.73;;;;;;;11.81;66.42;99601.38;5170989;28;20120;-70
2022/05/08 02:03:35;;;;;;;22.05;17.02;;;;;;;11.98;66.55;99601.56;5171587;28;20731;-70
2022/05/08 02:06:25;;;;;;;22.83;17.30;;;;;;;11.95;66.56;99599.19;5150016;28;20057;-70
2022/05/08 02:09:15;;;;;;;21.80;16.08;;;;;;;11.57;64.92;99573.34;5180768;28;20050;-70
2022/05/08 02:12:05;;;;;;;21.92;15.90;;;;;;;11.61;66.13;99605.78;5169612;28;20139;-71
2022/05/08 02:14:55;;;;;;;18.70;14.15;;;;;;;11.49;66.59;99586.47;5183263;28;20137;-71
2022/05/08 02:17:46;;;;;;;18.80;14.20;;;;;;;11.48;66.13;99614.00;5195540;28;20053;-72
2022/05/08 02:20:39;;;;;;;20.45;15.35;;;;;;;11.55;66.34;99604.50;5182969;28;20061;-71
2022/05/08 02:23:29;;;;;;;20.00;16.55;;;;;;;11.53;66.62;99603.81;5164904;28;20072;-72
2022/05/08 02:26:19;;;;;;;19.83;15.60;;;;;;;11.36;66.66;99605.31;5163197;28;20086;-72
2022/05/08 02:29:09;;;;;;;22.10;15.68;;;;;;;11.36;67.09;99607.97;5166441;28;20172;-70
2022/05/08 02:31:59;;;;;;;23.38;16.83;;;;;;;11.51;67.17;99614.56;5171144;28;20192;-72
2022/05/08 02:34:49;;;;;;;21.55;16.15;;;;;;;11.14;67.45;99606.31;5180206;28;20531;-71
2022/05/08 02:37:40;;;;;;;19.85;15.10;;;;;;;11.18;67.85;99612.19;5164144;28;20061;-70
2022/05/08 02:40:31;;;;;;;22.52;15.82;;;;;;;11.20;66.79;99597.81;5181741;28;20057;-70
2022/05/08 02:43:21;;;;;;;19.75;15.38;;;;;;;11.14;65.95;99610.78;5172252;28;20056;-70
2022/05/08 02:46:12;;;;;;;20.42;15.52;;;;;;;11.14;66.35;99610.78;5182931;28;20061;-71
2022/05/08 02:49:02;;;;;;;20.52;16.00;;;;;;;11.11;67.38;99608.41;5182020;28;20123;-71
2022/05/08 02:51:52;;;;;;;34.28;17.10;;;;;;;11.03;67.56;99612.56;5170510;28;20431;-70
2022/05/08 02:54:42;;;;;;;21.45;15.27;;;;;;;11.08;67.96;99614.78;5167571;28;20078;-71
2022/05/08 03:01:01;;;;;;;23.40;15.13;;;;;;;11.05;67.30;99615.06;5139521;28;20497;-71
2022/05/08 03:03:51;;;;;;;17.65;14.05;;;;;;;11.00;67.76;99612.81;5165728;28;20527;-70
2022/05/08 03:06:41;;;;;;;19.55;14.57;;;;;;;10.94;67.06;99613.34;5165226;28;20057;-70
2022/05/08 03:09:31;;;;;;;20.13;14.23;;;;;;;10.94;67.67;99608.03;5167828;28;20074;-70
2022/05/08 03:12:22;;;;;;;20.00;15.20;;;;;;;11.06;67.62;99608.81;5170489;28;20189;-71
2022/05/08 03:15:12;;;;;;;20.17;15.00;;;;;;;11.15;67.16;99617.75;5179344;28;20180;-70
2022/05/08 03:18:02;;;;;;;19.30;15.63;;;;;;;10.75;67.28;99603.44;5170119;28;20133;-70
2022/05/08 03:20:52;;;;;;;21.08;13.77;;;;;;;10.62;66.82;99613.41;5166170;28;20057;-70
2022/05/08 03:23:44;;;;;;;20.15;14.20;;;;;;;10.63;67.47;99615.09;5163260;28;20058;-70
2022/05/08 03:26:36;;;;;;;20.67;15.23;;;;;;;10.68;67.99;99615.53;5171090;28;20444;-70
2022/05/08 03:29:26;;;;;;;23.05;15.63;;;;;;;10.66;68.40;99613.97;5165945;28;20522;-71
2022/05/08 03:32:16;;;;;;;20.92;15.73;;;;;;;10.75;68.35;99616.69;5166564;28;20085;-70
2022/05/08 03:35:06;;;;;;;21.13;15.68;;;;;;;10.73;67.87;99620.47;5162793;28;20409;-70
2022/05/08 03:37:56;;;;;;;21.85;15.55;;;;;;;10.59;67.63;99616.31;5163088;28;20051;-71
2022/05/08 03:40:46;;;;;;;21.13;14.85;;;;;;;10.54;68.02;99598.13;5162864;28;20050;-70
2022/05/08 03:43:36;;;;;;;21.73;16.25;;;;;;;10.59;67.89;99605.69;5181199;28;20075;-70
2022/05/08 03:46:26;;;;;;;21.33;14.93;;;;;;;10.56;68.35;99608.59;5164034;28;20112;-70
2022/05/08 03:49:19;;;;;;;25.48;16.33;;;;;;;10.66;68.02;99614.84;5165518;28;20429;-70
2022/05/08 03:52:09;;;;;;;21.83;17.00;;;;;;;10.57;68.64;99599.69;5181374;28;20061;-70
2022/05/08 03:55:00;;;;;;;23.67;16.50;;;;;;;10.53;68.56;99619.50;5169292;28;20179;-70
2022/05/08 03:57:50;;;;;;;19.65;15.48;;;;;;;10.44;67.09;99620.25;5168851;28;20181;-72
2022/05/08 04:00:41;;;;;;;22.42;15.00;;;;;;;10.37;66.70;99632.34;5236788;22;20090;-83
2022/05/08 04:03:31;;;;;;;20.65;15.85;;;;;;;10.37;68.31;99625.22;5230508;28;20053;-83
2022/05/08 04:06:21;;;;;;;25.77;16.73;;;;;;;10.33;68.37;99614.03;5207907;28;20069;-82
2022/05/08 04:09:11;;;;;;;26.00;16.13;;;;;;;10.31;68.38;99612.47;5201785;28;20053;-82
2022/05/08 04:12:02;;;;;;;19.73;14.65;;;;;;;10.20;68.50;99623.06;5218511;28;20084;-83
2022/05/08 04:14:52;;;;;;;20.55;15.20;;;;;;;10.13;68.31;99633.31;5243769;28;20048;-80
2022/05/08 04:17:42;;;;;;;21.20;15.85;;;;;;;10.14;68.14;99610.34;5229291;28;20060;-81
2022/05/08 04:20:33;;;;;;;20.00;15.00;;;;;;;10.17;68.57;99639.25;5213617;28;20064;-82
2022/05/08 04:26:33;;;;;;;23.33;17.90;;;;;;;10.30;68.91;99651.41;5206729;28;20116;-81
2022/05/08 04:29:24;;;;;;;24.38;17.02;;;;;;;10.37;68.69;99641.13;5194505;28;20373;-80
2022/05/08 04:32:14;;;;;;;25.33;17.38;;;;;;;10.39;69.14;99652.44;5204021;28;20103;-83
2022/05/08 04:35:04;;;;;;;25.30;18.30;;;;;;;10.46;69.56;99663.38;5203040;28;20316;-82
2022/05/08 04:37:55;;;;;;;27.63;18.88;;;;;;;10.50;69.78;99665.66;5189570;28;20059;-81
2022/05/08 04:40:45;;;;;;;25.50;19.23;;;;;;;10.48;69.58;99648.19;5220243;28;20063;-81
2022/05/08 04:43:35;;;;;;;23.83;17.90;;;;;;;10.53;69.13;99664.56;5205027;28;20060;-81
2022/05/08 04:46:27;;;;;;;23.48;18.98;;;;;;;10.66;69.79;99661.72;5218691;28;20139;-81
2022/05/08 04:49:19;;;;;;;26.60;18.50;;;;;;;10.73;69.06;99657.59;5209638;28;20064;-80
2022/05/08 04:52:10;;;;;;;23.38;17.35;;;;;;;10.66;68.84;99656.41;5222429;28;20282;-80
2022/05/08 04:55:03;;;;;;;26.13;18.33;;;;;;;10.70;69.08;99656.03;5217563;28;20422;-81
2022/05/08 04:57:53;;;;;;;29.92;19.92;;;;;;;11.02;69.40;99671.03;5222870;28;20056;-81
2022/05/08 05:00:43;;;;;;;25.50;18.17;;;;;;;10.92;69.68;99670.13;5209313;28;20053;-81
2022/05/08 05:03:34;;;;;;;29.58;19.92;;;;;;;10.91;69.02;99652.56;5223363;28;20076;-81
2022/05/08 05:06:24;;;;;;;29.02;19.60;;;;;;;11.02;69.64;99668.38;5202040;28;20676;-80
2022/05/08 05:09:16;;;;;;;28.33;20.77;;;;;;;11.05;69.98;99658.34;5202707;28;20139;-80
2022/05/08 05:12:07;;;;;;;29.42;20.45;;;;;;;11.05;69.57;99665.47;5203393;28;20468;-82
2022/05/08 05:14:59;;;;;;;27.08;19.40;;;;;;;11.00;69.19;99659.75;5222732;28;20175;-83
2022/05/08 05:17:51;;;;;;;35.67;24.17;;;;;;;11.22;69.58;99656.91;5227104;28;20102;-82
2022/05/08 05:20:45;;;;;;;32.03;21.50;;;;;;;11.11;68.72;99664.97;5214849;28;20111;-80
2022/05/08 05:23:36;;;;;;;25.15;19.27;;;;;;;11.13;69.47;99673.66;5202541;28;20168;-82
2022/05/08 05:26:26;;;;;;;29.05;19.38;;;;;;;11.12;70.70;99679.06;5206893;28;20221;-81
2022/05/08 05:29:16;;;;;;;27.65;19.95;;;;;;;11.10;70.45;99671.25;5206994;28;20060;-82
2022/05/08 05:32:07;;;;;;;25.58;18.25;;;;;;;11.18;69.95;99670.59;5194913;28;20155;-82
2022/05/08 05:34:57;;;;;;;24.63;18.73;;;;;;;11.18;69.96;99676.72;5206083;28;20076;-82
2022/05/08 05:37:47;;;;;;;23.67;19.13;;;;;;;11.35;69.25;99671.78;5219490;28;20049;-82
2022/05/08 05:40:37;;;;;;;24.80;18.52;;;;;;;11.42;68.88;99684.44;5205355;28;20049;-81
2022/05/08 05:43:27;;;;;;;30.30;19.77;;;;;;;11.22;70.67;99682.63;5205570;28;20053;-83
2022/05/08 05:49:27;;;;;;;26.92;20.13;;;;;;;11.63;68.59;99664.94;5214727;28;20099;-79
2022/05/08 05:52:17;;;;;;;26.73;19.52;;;;;;;11.64;68.23;99669.28;5206105;28;20747;-80
2022/05/08 05:55:08;;;;;;;25.70;19.48;;;;;;;11.74;67.77;99672.81;5222412;28;20131;-78
2022/05/08 05:57:58;;;;;;;26.08;19.35;;;;;;;11.71;68.50;99684.53;5221214;28;20056;-79
2022/05/08 06:00:49;;;;;;;29.10;19.85;;;;;;;11.98;68.54;99693.75;5210889;28;20546;-80
2022/05/08 06:03:40;;;;;;;31.38;20.02;;;;;;;11.99;67.69;99680.34;5208944;28;20061;-80
2022/05/08 06:06:30;;;;;;;26.27;19.80;;;;;;;12.03;67.54;99688.88;5216354;28;20056;-81
2022/05/08 06:09:20;;;;;;;26.15;19.67;;;;;;;11.96;67.95;99701.88;5215681;28;20057;-81
2022/05/08 06:12:11;;;;;;;35.30;20.63;;;;;;;12.06;68.29;99707.22;5190215;28;20099;-80
2022/05/08 06:15:03;;;;;;;29.20;20.05;;;;;;;12.25;67.93;99701.09;5210648;28;20049;-81
2022/05/08 06:17:55;;;;;;;30.23;21.40;;;;;;;12.62;66.58;99681.81;5210982;28;20181;-80
2022/05/08 06:20:45;;;;;;;30.77;22.10;;;;;;;12.46;67.72;99683.19;5213494;28;20059;-81
2022/05/08 06:23:36;;;;;;;32.35;22.20;;;;;;;12.62;68.36;99719.06;5218881;28;20061;-82
2022/05/08 06:26:31;;;;;;;32.63;24.40;;;;;;;12.70;67.69;99697.91;5207004;28;20049;-81
2022/05/08 06:29:21;;;;;;;36.65;26.13;;;;;;;13.05;66.51;99704.47;5216000;28;20446;-79
2022/05/08 06:32:11;;;;;;;35.13;27.25;;;;;;;13.25;66.52;99715.97;5207968;28;20056;-80
2022/05/08 06:35:01;;;;;;;35.30;27.30;;;;;;;13.32;66.11;99717.91;5213190;28;20060;-80
2022/05/08 06:37:52;;;;;;;33.70;25.90;;;;;;;13.57;64.62;99720.91;5224033;28;20049;-79
2022/05/08 06:40:42;;;;;;;32.72;24.95;;;;;;;13.21;66.21;99706.53;5208870;28;20053;-80
2022/05/08 06:43:33;;;;;;;32.60;24.50;;;;;;;13.44;65.66;99718.56;5220366;28;20167;-80
2022/05/08 06:46:23;;;;;;;31.83;25.25;;;;;;;13.49;65.25;99703.00;5204064;28;20072;-80
2022/05/08 06:49:14;;;;;;;35.58;26.42;;;;;;;13.62;65.84;99708.84;5189544;28;20049;-81
2022/05/08 06:52:04;;;;;;;33.72;23.85;;;;;;;13.63;65.92;99731.00;5194404;28;20056;-81
2022/05/08 06:54:54;;;;;;;35.17;24.13;;;;;;;13.53;65.90;99709.72;5209504;28;20514;-82
2022/05/08 06:57:44;;;;;;;33.20;23.85;;;;;;;13.84;64.69;99720.97;5207420;28;20060;-82
2022/05/08 07:03:43;;;;;;;32.70;23.60;;;;;;;14.31;64.38;99717.34;5210918;28;20522;-83
2022/05/08 07:06:35;;;;;;;36.25;24.13;;;;;;;14.54;63.33;99715.13;5217587;28;20133;-82
2022/05/08 07:09:35;;;;;;;33.15;23.35;;;;;;;14.64;63.34;99739.09;5217704;28;20124;-84
2022/05/08 07:12:25;;;;;;;29.95;22.85;;;;;;;14.82;61.57;99699.88;5232450;28;20057;-82
2022/05/08 07:15:16;;;;;;;36.53;23.27;;;;;;;14.89;62.06;99742.81;5214298;28;20056;-82
2022/05/08 07:18:06;;;;;;;33.20;23.95;;;;;;;15.26;60.90;99730.09;5246988;28;20048;-83
2022/05/08 07:20:57;;;;;;;32.90;24.70;;;;;;;15.23;61.36;99732.22;5232693;28;20048;-82
2022/05/08 07:23:47;;;;;;;32.05;24.67;;;;;;;15.22;61.97;99736.72;5215984;28;20076;-83
2022/05/08 07:26:38;;;;;;;30.80;22.17;;;;;;;15.48;59.58;99715.38;5215710;28;20049;-83
2022/05/08 07:29:29;;;;;;;27.00;21.83;;;;;;;15.71;59.17;99731.75;5207557;28;20047;-83
2022/05/08 07:32:19;;;;;;;31.65;23.83;;;;;;;15.48;61.67;99734.09;5210522;28;20057;-83
2022/05/08 07:38:21;;;;;;;29.48;21.83;;;;;;;16.02;60.66;99728.53;5216756;28;20508;-83
2022/05/08 07:41:14;;;;;;;26.92;20.48;;;;;;;16.47;57.92;99715.81;5210726;28;20612;-83
2022/05/08 07:44:05;;;;;;;26.23;19.15;;;;;;;16.29;58.18;99713.25;5214668;28;20056;-83
2022/05/08 07:46:55;;;;;;;23.45;17.75;;;;;;;16.78;57.63;99710.69;5206968;28;20052;-83
2022/05/08 07:49:45;;;;;;;27.27;18.80;;;;;;;17.20;57.24;99757.94;5217645;28;20049;-83
2022/05/08 07:52:38;;;;;;;21.45;16.77;;;;;;;16.98;56.12;99716.56;5221195;28;21350;-82
2022/05/08 07:55:29;;;;;;;22.27;17.65;;;;;;;17.33;56.59;99710.03;5219582;28;20057;-82
2022/05/08 07:58:21;;;;;;;22.02;17.58;;;;;;;18.37;55.03;99759.19;5208163;28;20045;-83
2022/05/08 08:01:12;;;;;;;24.27;17.83;;;;;;;19.04;52.51;99710.25;5220504;28;20049;-82
2022/05/08 08:04:08;;;;;;;21.33;16.25;;;;;;;17.34;54.57;99723.25;5216357;28;20761;-84
2022/05/08 08:06:59;;;;;;;21.67;17.27;;;;;;;17.54;55.45;99714.84;5220646;28;20067;-83
2022/05/08 08:09:49;;;;;;;25.35;17.55;;;;;;;18.17;54.05;99719.34;5201036;28;20158;-81
2022/05/08 08:12:40;;;;;;;22.65;16.75;;;;;;;18.75;53.77;99738.69;5215782;28;20060;-84
2022/05/08 08:15:31;;;;;;;19.20;16.55;;;;;;;19.01;54.21;99773.28;5212907;28;20056;-82
2022/05/08 08:18:21;;;;;;;21.15;16.60;;;;;;;18.81;53.31;99731.75;5213793;28;20053;-82
2022/05/08 08:21:13;;;;;;;25.38;17.20;;;;;;;18.96;52.19;99772.97;5210720;28;20056;-82
2022/05/08 08:24:04;;;;;;;20.38;17.38;;;;;;;18.55;52.73;99743.66;5221369;28;20107;-81
2022/05/08 08:26:54;;;;;;;20.00;16.80;;;;;;;18.25;53.96;99751.53;5222189;28;20256;-80
2022/05/08 08:29:45;;;;;;;22.45;16.83;;;;;;;18.07;55.16;99737.50;5217731;28;20068;-81
2022/05/08 08:32:35;;;;;;;20.05;17.77;;;;;;;18.65;54.04;99727.31;5210980;28;20087;-80
2022/05/08 08:35:26;;;;;;;25.58;19.17;;;;;;;19.08;53.23;99736.59;5219750;28;20060;-82
2022/05/08 08:38:16;;;;;;;24.33;18.55;;;;;;;18.74;54.85;99762.03;5195490;28;20671;-82
2022/05/08 08:41:07;;;;;;;21.95;18.40;;;;;;;18.67;55.08;99755.66;5193989;28;20118;-80
2022/05/08 08:50:24;;;;;;;25.42;18.50;;;;;;;19.33;54.13;99760.56;5219137;28;20049;-81
2022/05/08 08:53:14;;;;;;;19.88;15.73;;;;;;;19.60;51.98;99770.75;5206635;28;20050;-80
2022/05/08 08:56:05;;;;;;;22.85;17.02;;;;;;;19.85;53.00;99765.13;5204612;28;20056;-82
2022/05/08 08:58:55;;;;;;;26.63;19.08;;;;;;;19.92;51.82;99755.31;5205677;28;20064;-80
2022/05/08 09:01:46;;;;;;;26.15;17.98;;;;;;;20.25;50.91;99754.91;5201188;28;20511;-81
2022/05/08 09:04:36;;;;;;;20.85;17.45;;;;;;;19.94;50.86;99756.78;5206126;28;20207;-82
2022/05/08 09:07:43;;;;;;;23.15;17.85;;;;;;;20.06;51.17;99777.84;5207277;28;20054;-81
2022/05/08 09:10:36;;;;;;;23.52;17.08;;;;;;;20.12;51.68;99769.88;5207415;28;20060;-82
2022/05/08 09:13:28;;;;;;;20.80;17.55;;;;;;;20.06;53.50;99770.59;5209475;28;20451;-81
2022/05/08 09:16:19;;;;;;;20.13;17.45;;;;;;;19.73;51.90;99739.69;5208058;28;20167;-83
2022/05/08 09:19:09;;;;;;;25.25;17.50;;;;;;;20.19;50.73;99751.09;5202687;28;20061;-81
2022/05/08 09:22:02;;;;;;;22.65;18.52;;;;;;;20.49;51.06;99762.66;5208216;28;20053;-82
2022/05/08 09:24:54;;;;;;;22.23;17.40;;;;;;;20.83;52.60;99753.97;5205837;28;20518;-84
2022/05/08 09:28:01;;;;;;;25.63;18.15;;;;;;;20.59;51.32;99747.06;5230178;28;20053;-82
2022/05/08 09:31:05;;;;;;;23.13;17.40;;;;;;;20.90;51.68;99758.59;5225266;28;20095;-85
2022/05/08 09:34:01;;;;;;;23.60;17.20;;;;;;;21.21;49.65;99750.16;5217800;28;20071;-82
2022/05/08 09:37:09;;;;;;;23.70;16.98;;;;;;;21.03;51.22;99737.97;5229182;28;20075;-83
2022/05/08 09:40:18;;;;;;;19.38;16.95;;;;;;;21.22;50.63;99714.06;5220500;28;20049;-82
2022/05/08 09:43:30;;;;;;;22.98;17.85;;;;;;;21.83;50.68;99738.63;5226630;28;20075;-84
2022/05/08 09:46:21;;;;;;;20.45;16.23;;;;;;;21.73;49.84;99748.94;5199050;28;20107;-83
2022/05/08 09:49:23;;;;;;;17.00;14.85;;;;;;;21.50;48.16;99733.00;5227343;28;20068;-83
2022/05/08 09:52:15;;;;;;;16.40;14.23;;;;;;;22.00;48.72;99741.81;5208760;28;20055;-84
2022/05/08 09:55:10;;;;;;;16.52;14.27;;;;;;;22.15;48.27;99747.06;5214515;28;20061;-82
2022/05/08 09:58:00;;;;;;;19.75;15.48;;;;;;;21.86;48.95;99730.13;5214230;28;20609;-83
2022/05/08 10:00:58;;;;;;;17.00;11.70;;;;;;;22.54;45.80;99740.19;5226301;28;20053;-83
2022/05/08 10:03:49;;;;;;;14.80;11.60;;;;;;;23.07;46.52;99746.56;5207580;28;20057;-82
2022/05/08 10:06:41;;;;;;;16.88;12.23;;;;;;;23.63;45.66;99720.97;5194507;28;20072;-83
2022/05/08 10:15:49;;;;;;;14.40;11.02;;;;;;;23.27;44.52;99718.69;5205187;28;20136;-81
2022/05/08 10:18:43;;;;;;;15.40;10.88;;;;;;;23.21;46.64;99704.13;5202939;28;20072;-82
2022/05/08 10:22:05;;;;;;;16.25;10.52;;;;;;;23.39;44.94;99727.88;5225807;28;20071;-82
2022/05/08 10:25:13;;;;;;;13.40;9.15;;;;;;;24.45;46.89;99713.25;5226310;28;20084;-82
2022/05/08 10:28:09;;;;;;;14.32;8.85;;;;;;;23.77;43.00;99702.84;5196353;28;20055;-83
2022/05/08 10:31:37;;;;;;;11.40;8.93;;;;;;;23.08;44.50;99721.22;5212276;28;20182;-83
2022/05/08 10:34:35;;;;;;;10.80;8.35;;;;;;;24.29;43.58;99696.38;5210132;28;20052;-83
2022/05/08 10:37:29;;;;;;;14.18;7.65;;;;;;;24.38;41.44;99684.25;5216083;28;20168;-83
2022/05/08 10:40:22;;;;;;;16.65;6.75;;;;;;;24.53;39.08;99702.13;5203878;28;20099;-83
2022/05/08 10:43:13;;;;;;;10.77;6.10;;;;;;;22.74;41.72;99697.81;5223483;28;20079;-83
2022/05/08 10:46:19;;;;;;;7.35;6.15;;;;;;;23.88;41.92;99669.69;5201135;28;20055;-83
2022/05/08 10:49:09;;;;;;;8.40;6.30;;;;;;;23.96;40.42;99669.44;5211523;28;20045;-83
2022/05/08 10:52:08;;;;;;;9.93;5.82;;;;;;;23.65;38.48;99705.34;5213811;28;20046;-82
2022/05/08 10:55:04;;;;;;;8.43;4.97;;;;;;;23.32;41.35;99691.88;5208706;28;20636;-82
2022/05/08 10:57:55;;;;;;;8.05;4.75;;;;;;;23.30;38.32;99691.22;5212793;28;20138;-82
2022/05/08 11:00:46;;;;;;;6.32;4.20;;;;;;;23.64;38.85;99690.97;5209792;28;20103;-83
2022/05/08 11:03:36;;;;;;;5.63;4.40;;;;;;;23.33;37.71;99677.28;5218294;28;20049;-84
2022/05/08 11:06:27;;;;;;;7.43;4.35;;;;;;;23.75;37.45;99696.81;5223960;28;20056;-83
2022/05/08 11:09:23;;;;;;;9.68;4.53;;;;;;;23.11;39.89;99679.38;5226402;28;20075;-83
2022/05/08 11:12:14;;;;;;;12.13;5.15;;;;;;;23.14;40.43;99681.66;5211758;28;20059;-82
2022/05/08 11:15:08;;;;;;;15.10;5.18;;;;;;;23.11;39.54;99690.19;5225967;28;20146;-82
2022/05/08 11:18:18;;;;;;;5.22;4.38;;;;;;;23.51;39.19;99690.16;5213640;28;20088;-82
2022/05/08 11:21:09;;;;;;;7.25;4.43;;;;;;;22.38;41.38;99690.88;5204393;28;20191;-83
2022/05/08 11:23:59;;;;;;;8.55;4.97;;;;;;;22.39;39.30;99664.72;5205574;28;20123;-83
2022/05/08 11:26:49;;;;;;;8.75;4.80;;;;;;;23.02;37.85;99688.75;5207984;28;20424;-82
2022/05/08 11:29:49;;;;;;;11.95;4.85;;;;;;;22.52;40.76;99683.66;5197318;28;20115;-83
2022/05/08 11:36:07;;;;;;;8.05;5.40;;;;;;;22.45;40.77;99689.06;5220760;28;20146;-82
2022/05/08 11:39:12;;;;;;;6.65;5.20;;;;;;;22.69;41.65;99700.31;5227417;28;20083;-83
2022/05/08 11:42:03;;;;;;;11.13;5.50;;;;;;;23.19;40.71;99696.22;5226091;28;20087;-82
2022/05/08 11:45:06;;;;;;;8.35;5.22;;;;;;;23.32;39.07;99684.56;5211219;28;20116;-82
2022/05/08 11:47:56;;;;;;;9.02;5.20;;;;;;;22.49;40.27;99689.47;5198641;28;20049;-83
2022/05/08 11:50:53;;;;;;;8.73;5.10;;;;;;;23.02;40.55;99683.34;5221187;28;20507;-84
2022/05/08 11:53:45;;;;;;;7.55;5.55;;;;;;;23.55;39.35;99683.28;5216441;28;20057;-84
2022/05/08 11:56:36;;;;;;;8.93;4.47;;;;;;;23.45;37.57;99702.66;5206447;28;20128;-83
2022/05/08 11:59:35;;;;;;;9.88;4.90;;;;;;;23.58;38.01;99683.69;5204049;28;20076;-84
2022/05/08 12:02:42;;;;;;;5.63;4.30;;;;;;;24.01;37.10;99702.16;5205059;28;20060;-84
2022/05/08 12:05:34;;;;;;;5.53;4.47;;;;;;;24.47;37.71;99686.72;5191915;28;20092;-84
2022/05/08 12:08:25;;;;;;;6.07;4.10;;;;;;;23.96;37.52;99666.72;5201889;28;20060;-85
2022/05/08 12:11:28;;;;;;;7.15;3.97;;;;;;;24.16;37.27;99680.19;5210399;28;20052;-83
2022/05/08 12:14:29;;;;;;;7.28;4.20;;;;;;;24.01;36.81;99680.47;5212791;28;20056;-84
2022/05/08 12:17:20;;;;;;;9.23;3.88;;;;;;;24.53;35.81;99661.47;5221194;28;20136;-83
2022/05/08 12:20:26;;;;;;;9.40;3.78;;;;;;;24.43;34.84;99678.19;5192630;28;20056;-83
2022/05/08 12:23:17;;;;;;;8.88;3.47;;;;;;;24.24;36.07;99688.09;5198699;28;20114;-83
2022/05/08 12:26:07;;;;;;;7.03;3.38;;;;;;;24.61;33.71;99672.88;5210796;28;20351;-84
2022/05/08 12:28:57;;;;;;;4.50;3.75;;;;;;;23.31;35.56;99669.38;5192564;28;20746;-84
2022/05/08 12:31:50;;;;;;;6.57;3.50;;;;;;;23.47;37.74;99670.78;5215844;28;20154;-85
2022/05/08 12:34:41;;;;;;;7.18;3.78;;;;;;;23.37;36.71;99665.81;5224752;28;20128;-85
2022/05/08 12:37:31;;;;;;;7.53;3.80;;;;;;;23.80;36.12;99659.91;5200765;28;20057;-84
2022/05/08 12:40:23;;;;;;;5.82;3.45;;;;;;;23.49;36.25;99652.47;5214916;28;20041;-84
2022/05/08 12:43:14;;;;;;;6.60;3.42;;;;;;;24.05;34.90;99660.03;5208946;28;20061;-84
2022/05/08 12:46:05;;;;;;;7.50;3.38;;;;;;;24.16;34.81;99663.94;5210538;28;20059;-84
2022/05/08 12:49:04;;;;;;;5.82;3.38;;;;;;;23.64;34.89;99671.16;5229075;28;20053;-84
2022/05/08 12:51:55;;;;;;;8.43;3.55;;;;;;;23.57;35.67;99637.88;5226387;28;20473;-84
2022/05/08 12:54:46;;;;;;;5.57;3.65;;;;;;;24.14;35.75;99656.03;5223940;28;20052;-85
2022/05/08 13:00:53;;;;;;;7.25;3.83;;;;;;;23.79;35.33;99647.41;5201982;28;20510;-85
2022/05/08 13:03:43;;;;;;;7.20;3.63;;;;;;;24.47;34.50;99655.06;5214379;28;20112;-85
2022/05/08 13:06:34;;;;;;;6.20;3.58;;;;;;;24.51;34.18;99636.47;5208070;28;20059;-85
2022/05/08 13:09:24;;;;;;;7.72;3.60;;;;;;;24.13;36.63;99653.53;5215777;28;20106;-84
2022/05/08 13:12:14;;;;;;;5.97;3.75;;;;;;;24.07;36.69;99662.50;5227487;28;20079;-83
2022/05/08 13:15:05;;;;;;;10.20;3.80;;;;;;;24.17;35.70;99643.91;5206215;28;20049;-83
2022/05/08 13:17:56;;;;;;;6.57;3.40;;;;;;;24.57;34.64;99644.56;5210656;28;20103;-86
2022/05/08 13:20:46;;;;;;;5.03;2.67;;;;;;;25.02;33.89;99640.88;5227723;28;20092;-83
2022/05/08 13:23:37;;;;;;;6.75;3.10;;;;;;;25.01;35.26;99631.06;5218263;28;20056;-83
2022/05/08 13:26:27;;;;;;;7.82;4.00;;;;;;;24.10;37.16;99610.59;5201598;28;20060;-83
2022/05/08 13:29:18;;;;;;;6.22;4.70;;;;;;;23.73;36.17;99648.28;5217544;28;20500;-85
2022/05/08 13:32:08;;;;;;;6.55;3.95;;;;;;;23.66;39.18;99618.47;5232631;28;20422;-83
2022/05/08 13:34:59;;;;;;;7.68;4.18;;;;;;;24.18;36.54;99640.19;5228579;28;20160;-84
2022/05/08 13:37:50;;;;;;;10.02;4.45;;;;;;;24.52;35.92;99632.69;5223592;28;20067;-85
2022/05/08 13:40:41;;;;;;;6.82;4.00;;;;;;;24.48;35.22;99623.34;5217216;28;20139;-84
2022/05/08 13:43:32;;;;;;;5.30;3.85;;;;;;;24.98;35.66;99623.38;5226013;28;20064;-85
2022/05/08 13:46:22;;;;;;;5.88;3.70;;;;;;;24.32;33.94;99620.06;5232821;28;20080;-84
2022/05/08 13:49:12;;;;;;;10.18;4.18;;;;;;;23.75;36.73;99621.81;5202646;28;20054;-84
2022/05/08 13:52:02;;;;;;;5.72;3.65;;;;;;;24.10;37.51;99624.16;5233474;28;20166;-84